Flight Track Log - Related Links

Times and Time Zones

All times are in EDT time to prevent confusion due to time zone crossing. See the N53NW flight status page for this flight to view local times or setup timezone preferences in your user account.

Time Position Orientation Groundspeed Altitude Reporting Facility
EDT Latitude Longitude Course Direction KTS MPH feet Rate Location/Type
Fri 06:10:31 PM 38.7667 -90.4167 339° North 226 260 4,000  Level Gateway (St. Louis) TRACON
Fri 06:11:25 PM 38.8333 -90.4500 339° North 260 299 5,500 2,687 Climbing Gateway (St. Louis) TRACON
Fri 06:12:45 PM 38.9078 -90.4294 12° North 287 330 10,000 3,423 Climbing Kansas City Center
Fri 06:13:47 PM 38.9019 -90.3244 94° East 305 351 13,600 2,758 Climbing Kansas City Center
Fri 06:14:49 PM 38.8569 -90.2167 118° Southeast 319 367 15,700 2,177 Climbing Kansas City Center
Fri 06:15:51 PM 38.8128 -90.1089 118° Southeast 334 384 18,100 2,516 Climbing Kansas City Center
Fri 06:16:53 PM 38.7572 -89.9697 117° Southeast 370 426 20,900 1,403 Climbing Kansas City Center
Fri 06:17:55 PM 38.7064 -89.8478 118° Southeast 383 441 21,000 48 Climbing Kansas City Center
Fri 06:18:57 PM 38.6550 -89.7264 118° Southeast 387 445 21,000 48 Level Kansas City Center
Fri 06:19:59 PM 38.6122 -89.5789 110° East 403 464 21,100  Climbing Kansas City Center
Fri 06:21:01 PM 38.5875 -89.4369 103° East 408 470 21,000 -48 Descending Kansas City Center
Fri 06:22:03 PM 38.5644 -89.2950 102° East 408 470 21,000  Level Kansas City Center
Fri 06:23:05 PM 38.5392 -89.1428 102° East 409 471 21,000  Level Kansas City Center
Fri 06:24:07 PM 38.5158 -89.0008 102° East 408 470 21,000  Level Kansas City Center
Fri 06:25:10 PM 38.4894 -88.8483 102° East 409 471 21,000  Level Kansas City Center
Fri 06:26:12 PM 38.4658 -88.7078 102° East 406 467 21,000  Level Kansas City Center
Fri 06:27:14 PM 38.4389 -88.5608 103° East 404 465 21,000  Level Kansas City Center
Fri 06:28:16 PM 38.4153 -88.4208 102° East 403 464 21,000  Level Kansas City Center
Fri 06:29:18 PM 38.3903 -88.2814 103° East 402 463 21,000  Level Kansas City Center
Fri 06:30:20 PM 38.3711 -88.1394 100° East 404 465 21,000 58 Level Kansas City Center
Fri 06:31:01 PM 38.3686 -88.0233 92° East 411 473 21,100  Climbing Indianapolis Center
Fri 06:32:03 PM 38.3617 -87.8775 93° East 411 473 21,000 -48 Descending Indianapolis Center
Fri 06:33:05 PM 38.3544 -87.7339 94° East 407 468 21,000  Level Indianapolis Center
Fri 06:34:08 PM 38.3464 -87.5878 94° East 411 473 21,000  Level Indianapolis Center
Fri 06:35:10 PM 38.3392 -87.4428 94° East 410 472 21,000  Level Indianapolis Center
Fri 06:36:12 PM 38.3306 -87.2972 94° East 409 471 21,000  Level Indianapolis Center
Fri 06:37:14 PM 38.3100 -87.1378 99° East 405 466 21,000 48 Level Indianapolis Center
Fri 06:38:16 PM 38.2928 -86.9964 99° East 406 467 21,100  Climbing Indianapolis Center
Fri 06:39:18 PM 38.2747 -86.8542 99° East 409 471 21,000 -871 Descending Indianapolis Center
Fri 06:40:20 PM 38.2567 -86.7131 99° East 406 467 19,300 -1,694 Descending Indianapolis Center
Fri 06:41:22 PM 38.2400 -86.5850 99° East 375 432 17,500 -2,758 Descending Indianapolis Center
Fri 06:42:24 PM 38.2203 -86.4375 100° East 354 407 13,600 -3,097 Descending Indianapolis Center
Fri 06:43:26 PM 38.2061 -86.3269 99° East 322 371 11,100 -1,984 Descending Indianapolis Center
Fri 06:44:28 PM 38.2100 -86.2247 87° East 305 351 9,500 -1,500 Descending Indianapolis Center
Fri 06:45:30 PM 38.2308 -86.1300 74° East 282 325 8,000 -1,790 Descending Indianapolis Center
Fri 06:46:32 PM 38.2506 -86.0342 75° East 281 323 5,800 -1,984 Descending Indianapolis Center
Fri 06:47:34 PM 38.2692 -85.9461 75° East 270 311 3,900 -1,113 Descending Indianapolis Center
Fri 06:48:36 PM 38.2894 -85.8553 74° East 242 278 3,500 -576 Descending Indianapolis Center
Fri 06:49:39 PM 38.2994 -85.7919 79° East 209 241 2,700 -528 Descending Indianapolis Center
Fri 06:50:41 PM 38.2733 -85.7594 136° Southeast 181 208 2,400 -194 Descending Indianapolis Center
Fri 06:51:43 PM 38.2314 -85.7508 171° South 175 201 2,300 -97 Descending Indianapolis Center
Fri 06:54:00 PM 38.1741 -85.7365 130° Southeast  Level Estimated

Login

Don't have an account? Register now (free) for customized features, flight alerts, and more!